sensor_id;sensor_type;location;lat;lon;timestamp;P1;durP1;ratioP1;P2;durP2;ratioP2
15502;SDS011;7853;52.186;5.948;2022-08-11T00:02:40;4.80;;;3.53;;
15502;SDS011;7853;52.186;5.948;2022-08-11T00:02:45;4.18;;;3.33;;
15502;SDS011;7853;52.186;5.948;2022-08-11T00:02:46;6.23;;;3.60;;
15502;SDS011;7853;52.186;5.948;2022-08-11T00:03:45;5.36;;;3.80;;
15502;SDS011;7853;52.186;5.948;2022-08-11T00:04:43;6.55;;;3.74;;
15502;SDS011;7853;52.186;5.948;2022-08-11T00:05:44;4.91;;;3.85;;
15502;SDS011;7853;52.186;5.948;2022-08-11T00:06:44;5.32;;;3.48;;
15502;SDS011;7853;52.186;5.948;2022-08-11T00:07:44;4.60;;;3.83;;
15502;SDS011;7853;52.186;5.948;2022-08-11T00:08:43;4.40;;;3.79;;
15502;SDS011;7853;52.186;5.948;2022-08-11T00:09:43;4.84;;;3.68;;
15502;SDS011;7853;52.186;5.948;2022-08-11T00:10:43;4.15;;;3.43;;
15502;SDS011;7853;52.186;5.948;2022-08-11T00:11:44;5.48;;;3.74;;
15502;SDS011;7853;52.186;5.948;2022-08-11T00:12:46;4.52;;;3.42;;
15502;SDS011;7853;52.186;5.948;2022-08-11T00:13:44;5.00;;;3.70;;
15502;SDS011;7853;52.186;5.948;2022-08-11T00:14:44;5.02;;;3.73;;
15502;SDS011;7853;52.186;5.948;2022-08-11T00:15:44;5.72;;;3.89;;
15502;SDS011;7853;52.186;5.948;2022-08-11T00:16:52;5.36;;;3.50;;
15502;SDS011;7853;52.186;5.948;2022-08-11T00:17:44;4.70;;;3.58;;
15502;SDS011;7853;52.186;5.948;2022-08-11T00:18:45;4.69;;;3.68;;
15502;SDS011;7853;52.186;5.948;2022-08-11T00:19:45;5.99;;;4.02;;
15502;SDS011;7853;52.186;5.948;2022-08-11T00:20:44;4.41;;;3.58;;
15502;SDS011;7853;52.186;5.948;2022-08-11T00:21:44;5.59;;;3.72;;
15502;SDS011;7853;52.186;5.948;2022-08-11T00:22:45;5.33;;;3.51;;
15502;SDS011;7853;52.186;5.948;2022-08-11T00:23:45;6.40;;;3.72;;
15502;SDS011;7853;52.186;5.948;2022-08-11T00:24:44;5.65;;;3.86;;
15502;SDS011;7853;52.186;5.948;2022-08-11T00:25:46;4.96;;;3.81;;
15502;SDS011;7853;52.186;5.948;2022-08-11T00:26:46;5.59;;;3.60;;
15502;SDS011;7853;52.186;5.948;2022-08-11T00:27:45;4.98;;;3.93;;
15502;SDS011;7853;52.186;5.948;2022-08-11T00:28:45;6.71;;;3.59;;
15502;SDS011;7853;52.186;5.948;2022-08-11T00:29:50;4.31;;;3.66;;
15502;SDS011;7853;52.186;5.948;2022-08-11T00:30:45;5.99;;;3.54;;
15502;SDS011;7853;52.186;5.948;2022-08-11T00:31:46;6.11;;;3.44;;
15502;SDS011;7853;52.186;5.948;2022-08-11T00:32:51;5.32;;;3.61;;
15502;SDS011;7853;52.186;5.948;2022-08-11T00:33:45;5.08;;;3.26;;
15502;SDS011;7853;52.186;5.948;2022-08-11T00:34:45;4.01;;;3.03;;
15502;SDS011;7853;52.186;5.948;2022-08-11T00:35:45;6.11;;;3.39;;
15502;SDS011;7853;52.186;5.948;2022-08-11T00:36:46;5.52;;;3.55;;
15502;SDS011;7853;52.186;5.948;2022-08-11T00:37:47;4.67;;;3.55;;
15502;SDS011;7853;52.186;5.948;2022-08-11T00:38:51;5.05;;;3.54;;
15502;SDS011;7853;52.186;5.948;2022-08-11T00:39:46;4.68;;;3.40;;
15502;SDS011;7853;52.186;5.948;2022-08-11T00:40:50;5.68;;;3.46;;
15502;SDS011;7853;52.186;5.948;2022-08-11T00:41:47;5.14;;;3.62;;
15502;SDS011;7853;52.186;5.948;2022-08-11T00:42:50;5.84;;;3.72;;
15502;SDS011;7853;52.186;5.948;2022-08-11T00:43:49;5.97;;;3.76;;
15502;SDS011;7853;52.186;5.948;2022-08-11T00:44:48;4.60;;;3.44;;
15502;SDS011;7853;52.186;5.948;2022-08-11T00:45:50;5.63;;;3.81;;
15502;SDS011;7853;52.186;5.948;2022-08-11T00:46:49;4.69;;;3.52;;
15502;SDS011;7853;52.186;5.948;2022-08-11T00:47:50;5.16;;;3.74;;
15502;SDS011;7853;52.186;5.948;2022-08-11T00:48:49;4.92;;;3.48;;
15502;SDS011;7853;52.186;5.948;2022-08-11T00:49:51;5.26;;;3.44;;
15502;SDS011;7853;52.186;5.948;2022-08-11T00:50:48;5.88;;;3.48;;
15502;SDS011;7853;52.186;5.948;2022-08-11T00:51:49;6.51;;;3.90;;
15502;SDS011;7853;52.186;5.948;2022-08-11T00:52:50;6.18;;;3.65;;
15502;SDS011;7853;52.186;5.948;2022-08-11T00:53:47;5.73;;;3.92;;
15502;SDS011;7853;52.186;5.948;2022-08-11T00:54:55;3.95;;;3.39;;
15502;SDS011;7853;52.186;5.948;2022-08-11T00:57:58;5.75;;;3.68;;
15502;SDS011;7853;52.186;5.948;2022-08-11T00:58:51;5.00;;;3.52;;
15502;SDS011;7853;52.186;5.948;2022-08-11T00:59:54;4.68;;;3.54;;
15502;SDS011;7853;52.186;5.948;2022-08-11T01:00:53;5.85;;;3.37;;
15502;SDS011;7853;52.186;5.948;2022-08-11T01:01:50;5.02;;;3.34;;
15502;SDS011;7853;52.186;5.948;2022-08-11T01:02:58;5.28;;;3.40;;
15502;SDS011;7853;52.186;5.948;2022-08-11T01:03:55;4.22;;;3.38;;
15502;SDS011;7853;52.186;5.948;2022-08-11T01:05:05;5.95;;;3.54;;
15502;SDS011;7853;52.186;5.948;2022-08-11T01:05:50;4.88;;;3.45;;
15502;SDS011;7853;52.186;5.948;2022-08-11T01:06:51;5.62;;;3.42;;
15502;SDS011;7853;52.186;5.948;2022-08-11T01:07:51;4.63;;;3.75;;
15502;SDS011;7853;52.186;5.948;2022-08-11T01:08:59;4.46;;;3.40;;
15502;SDS011;7853;52.186;5.948;2022-08-11T01:09:48;4.52;;;3.46;;
15502;SDS011;7853;52.186;5.948;2022-08-11T01:10:50;4.24;;;3.45;;
15502;SDS011;7853;52.186;5.948;2022-08-11T01:12:05;5.20;;;3.50;;
15502;SDS011;7853;52.186;5.948;2022-08-11T01:12:51;4.87;;;3.62;;
15502;SDS011;7853;52.186;5.948;2022-08-11T01:13:54;4.90;;;3.61;;
15502;SDS011;7853;52.186;5.948;2022-08-11T01:16:06;5.42;;;3.58;;
15502;SDS011;7853;52.186;5.948;2022-08-11T01:16:51;6.34;;;3.62;;
15502;SDS011;7853;52.186;5.948;2022-08-11T01:17:54;5.78;;;3.78;;
15502;SDS011;7853;52.186;5.948;2022-08-11T01:19:55;5.62;;;3.63;;
15502;SDS011;7853;52.186;5.948;2022-08-11T01:20:58;4.10;;;3.27;;
15502;SDS011;7853;52.186;5.948;2022-08-11T01:22:58;5.65;;;3.62;;
15502;SDS011;7853;52.186;5.948;2022-08-11T01:23:57;4.58;;;3.61;;
15502;SDS011;7853;52.186;5.948;2022-08-11T01:24:58;3.89;;;3.41;;
15502;SDS011;7853;52.186;5.948;2022-08-11T01:26:54;5.76;;;3.54;;
15502;SDS011;7853;52.186;5.948;2022-08-11T01:28:56;5.01;;;3.26;;
15502;SDS011;7853;52.186;5.948;2022-08-11T01:29:57;4.42;;;3.40;;
15502;SDS011;7853;52.186;5.948;2022-08-11T01:30:56;4.17;;;3.50;;
15502;SDS011;7853;52.186;5.948;2022-08-11T01:31:58;5.91;;;3.51;;
15502;SDS011;7853;52.186;5.948;2022-08-11T01:32:59;3.89;;;3.34;;
15502;SDS011;7853;52.186;5.948;2022-08-11T01:34:48;4.47;;;3.16;;
15502;SDS011;7853;52.186;5.948;2022-08-11T01:34:55;6.11;;;3.83;;
15502;SDS011;7853;52.186;5.948;2022-08-11T01:36:00;5.16;;;3.56;;
15502;SDS011;7853;52.186;5.948;2022-08-11T01:36:50;4.34;;;3.58;;
15502;SDS011;7853;52.186;5.948;2022-08-11T01:38:53;5.17;;;3.64;;
15502;SDS011;7853;52.186;5.948;2022-08-11T01:39:53;5.75;;;3.20;;
15502;SDS011;7853;52.186;5.948;2022-08-11T01:40:56;6.06;;;3.29;;
15502;SDS011;7853;52.186;5.948;2022-08-11T01:41:53;5.21;;;3.66;;
15502;SDS011;7853;52.186;5.948;2022-08-11T01:42:54;4.59;;;3.69;;
15502;SDS011;7853;52.186;5.948;2022-08-11T01:43:56;4.93;;;3.77;;
15502;SDS011;7853;52.186;5.948;2022-08-11T01:45:50;4.84;;;3.57;;
15502;SDS011;7853;52.186;5.948;2022-08-11T01:46:50;5.07;;;3.55;;
15502;SDS011;7853;52.186;5.948;2022-08-11T01:47:54;5.54;;;3.83;;
15502;SDS011;7853;52.186;5.948;2022-08-11T01:48:52;4.69;;;3.60;;
15502;SDS011;7853;52.186;5.948;2022-08-11T01:49:53;7.68;;;3.98;;
15502;SDS011;7853;52.186;5.948;2022-08-11T01:50:53;6.78;;;3.79;;
15502;SDS011;7853;52.186;5.948;2022-08-11T01:51:58;5.19;;;3.55;;
15502;SDS011;7853;52.186;5.948;2022-08-11T01:52:54;6.06;;;3.75;;
15502;SDS011;7853;52.186;5.948;2022-08-11T01:53:53;6.24;;;3.78;;
15502;SDS011;7853;52.186;5.948;2022-08-11T01:54:51;5.60;;;3.67;;
15502;SDS011;7853;52.186;5.948;2022-08-11T01:55:51;4.68;;;3.29;;
15502;SDS011;7853;52.186;5.948;2022-08-11T01:56:52;4.37;;;3.68;;
15502;SDS011;7853;52.186;5.948;2022-08-11T01:58:00;6.27;;;3.69;;
15502;SDS011;7853;52.186;5.948;2022-08-11T01:58:53;6.25;;;3.78;;
15502;SDS011;7853;52.186;5.948;2022-08-11T01:59:50;5.63;;;3.65;;
15502;SDS011;7853;52.186;5.948;2022-08-11T02:00:51;5.19;;;4.10;;
15502;SDS011;7853;52.186;5.948;2022-08-11T02:01:53;5.86;;;3.93;;
15502;SDS011;7853;52.186;5.948;2022-08-11T02:02:51;5.47;;;3.75;;
15502;SDS011;7853;52.186;5.948;2022-08-11T02:03:53;6.68;;;3.60;;
15502;SDS011;7853;52.186;5.948;2022-08-11T02:04:53;4.37;;;3.60;;
15502;SDS011;7853;52.186;5.948;2022-08-11T02:05:53;6.89;;;3.79;;
15502;SDS011;7853;52.186;5.948;2022-08-11T02:06:52;5.37;;;4.18;;
15502;SDS011;7853;52.186;5.948;2022-08-11T02:07:53;8.43;;;4.69;;
15502;SDS011;7853;52.186;5.948;2022-08-11T02:08:53;6.18;;;3.78;;
15502;SDS011;7853;52.186;5.948;2022-08-11T02:09:55;4.60;;;3.59;;
15502;SDS011;7853;52.186;5.948;2022-08-11T02:10:51;5.36;;;3.57;;
15502;SDS011;7853;52.186;5.948;2022-08-11T02:11:50;4.10;;;3.69;;
15502;SDS011;7853;52.186;5.948;2022-08-11T02:12:51;4.88;;;3.86;;
15502;SDS011;7853;52.186;5.948;2022-08-11T02:13:52;4.27;;;3.54;;
15502;SDS011;7853;52.186;5.948;2022-08-11T02:14:53;6.18;;;3.71;;
15502;SDS011;7853;52.186;5.948;2022-08-11T02:15:53;5.43;;;4.13;;
15502;SDS011;7853;52.186;5.948;2022-08-11T02:16:54;4.30;;;3.82;;
15502;SDS011;7853;52.186;5.948;2022-08-11T02:17:55;6.10;;;3.91;;
15502;SDS011;7853;52.186;5.948;2022-08-11T02:18:51;5.12;;;3.73;;
15502;SDS011;7853;52.186;5.948;2022-08-11T02:19:53;5.20;;;3.61;;
15502;SDS011;7853;52.186;5.948;2022-08-11T02:20:51;6.32;;;4.19;;
15502;SDS011;7853;52.186;5.948;2022-08-11T02:21:53;4.80;;;3.89;;
15502;SDS011;7853;52.186;5.948;2022-08-11T02:22:52;5.48;;;4.00;;
15502;SDS011;7853;52.186;5.948;2022-08-11T02:23:51;5.65;;;3.79;;
15502;SDS011;7853;52.186;5.948;2022-08-11T02:24:52;6.32;;;3.69;;
15502;SDS011;7853;52.186;5.948;2022-08-11T02:25:52;5.28;;;3.95;;
15502;SDS011;7853;52.186;5.948;2022-08-11T02:26:53;6.08;;;4.07;;
15502;SDS011;7853;52.186;5.948;2022-08-11T02:27:52;6.91;;;4.16;;
15502;SDS011;7853;52.186;5.948;2022-08-11T02:28:54;4.78;;;3.83;;
15502;SDS011;7853;52.186;5.948;2022-08-11T02:29:53;4.80;;;3.89;;
15502;SDS011;7853;52.186;5.948;2022-08-11T02:30:53;5.70;;;4.02;;
15502;SDS011;7853;52.186;5.948;2022-08-11T02:31:55;5.68;;;4.15;;
15502;SDS011;7853;52.186;5.948;2022-08-11T02:32:54;4.89;;;3.80;;
15502;SDS011;7853;52.186;5.948;2022-08-11T02:33:53;6.72;;;4.21;;
15502;SDS011;7853;52.186;5.948;2022-08-11T02:34:54;5.07;;;4.15;;
15502;SDS011;7853;52.186;5.948;2022-08-11T02:35:56;6.94;;;3.80;;
15502;SDS011;7853;52.186;5.948;2022-08-11T02:36:54;5.31;;;3.76;;
15502;SDS011;7853;52.186;5.948;2022-08-11T02:37:54;7.03;;;3.83;;
15502;SDS011;7853;52.186;5.948;2022-08-11T02:38:52;5.91;;;3.85;;
15502;SDS011;7853;52.186;5.948;2022-08-11T02:39:54;5.20;;;4.06;;
15502;SDS011;7853;52.186;5.948;2022-08-11T02:40:54;5.03;;;3.93;;
15502;SDS011;7853;52.186;5.948;2022-08-11T02:41:54;6.16;;;4.09;;
15502;SDS011;7853;52.186;5.948;2022-08-11T02:42:55;5.72;;;3.97;;
15502;SDS011;7853;52.186;5.948;2022-08-11T02:43:55;5.31;;;3.96;;
15502;SDS011;7853;52.186;5.948;2022-08-11T02:44:56;6.52;;;4.22;;
15502;SDS011;7853;52.186;5.948;2022-08-11T02:45:54;5.38;;;4.10;;
15502;SDS011;7853;52.186;5.948;2022-08-11T02:46:54;6.42;;;4.22;;
15502;SDS011;7853;52.186;5.948;2022-08-11T02:47:53;4.85;;;4.05;;
15502;SDS011;7853;52.186;5.948;2022-08-11T02:48:58;5.94;;;4.32;;
15502;SDS011;7853;52.186;5.948;2022-08-11T02:49:55;5.35;;;4.11;;
15502;SDS011;7853;52.186;5.948;2022-08-11T02:50:55;5.73;;;4.39;;
15502;SDS011;7853;52.186;5.948;2022-08-11T02:52:04;5.88;;;4.33;;
15502;SDS011;7853;52.186;5.948;2022-08-11T02:52:54;5.43;;;4.28;;
15502;SDS011;7853;52.186;5.948;2022-08-11T02:53:53;7.77;;;3.96;;
15502;SDS011;7853;52.186;5.948;2022-08-11T02:54:58;5.79;;;4.16;;
15502;SDS011;7853;52.186;5.948;2022-08-11T02:55:54;5.84;;;4.30;;
15502;SDS011;7853;52.186;5.948;2022-08-11T02:56:56;6.83;;;4.59;;
15502;SDS011;7853;52.186;5.948;2022-08-11T02:57:54;5.00;;;4.22;;
15502;SDS011;7853;52.186;5.948;2022-08-11T02:58:54;5.84;;;3.95;;
15502;SDS011;7853;52.186;5.948;2022-08-11T02:59:54;6.58;;;4.30;;
15502;SDS011;7853;52.186;5.948;2022-08-11T03:00:54;5.72;;;4.27;;
15502;SDS011;7853;52.186;5.948;2022-08-11T03:01:54;5.15;;;4.09;;
15502;SDS011;7853;52.186;5.948;2022-08-11T03:02:58;5.45;;;4.13;;
15502;SDS011;7853;52.186;5.948;2022-08-11T03:03:54;5.65;;;4.20;;
15502;SDS011;7853;52.186;5.948;2022-08-11T03:05:02;5.19;;;4.07;;
15502;SDS011;7853;52.186;5.948;2022-08-11T03:05:56;6.35;;;4.39;;
15502;SDS011;7853;52.186;5.948;2022-08-11T03:06:56;6.91;;;4.57;;
15502;SDS011;7853;52.186;5.948;2022-08-11T03:08:01;5.21;;;4.41;;
15502;SDS011;7853;52.186;5.948;2022-08-11T03:08:53;6.17;;;4.49;;
15502;SDS011;7853;52.186;5.948;2022-08-11T03:09:54;4.93;;;4.13;;
15502;SDS011;7853;52.186;5.948;2022-08-11T03:10:55;5.45;;;4.18;;
15502;SDS011;7853;52.186;5.948;2022-08-11T03:11:55;5.80;;;4.31;;
15502;SDS011;7853;52.186;5.948;2022-08-11T03:12:56;6.66;;;4.31;;
15502;SDS011;7853;52.186;5.948;2022-08-11T03:13:57;5.78;;;4.30;;
15502;SDS011;7853;52.186;5.948;2022-08-11T03:14:54;5.18;;;3.87;;
15502;SDS011;7853;52.186;5.948;2022-08-11T03:15:58;5.91;;;4.54;;
15502;SDS011;7853;52.186;5.948;2022-08-11T03:16:55;5.94;;;4.23;;
15502;SDS011;7853;52.186;5.948;2022-08-11T03:17:56;5.70;;;4.16;;
15502;SDS011;7853;52.186;5.948;2022-08-11T03:18:55;6.88;;;4.43;;
15502;SDS011;7853;52.186;5.948;2022-08-11T03:19:59;6.30;;;4.18;;
15502;SDS011;7853;52.186;5.948;2022-08-11T03:20:56;4.71;;;4.16;;
15502;SDS011;7853;52.186;5.948;2022-08-11T03:21:58;6.14;;;4.30;;
15502;SDS011;7853;52.186;5.948;2022-08-11T03:22:56;6.27;;;4.35;;
15502;SDS011;7853;52.186;5.948;2022-08-11T03:23:55;7.16;;;4.67;;
15502;SDS011;7853;52.186;5.948;2022-08-11T03:24:57;4.95;;;4.26;;
15502;SDS011;7853;52.186;5.948;2022-08-11T03:25:55;6.40;;;4.19;;
15502;SDS011;7853;52.186;5.948;2022-08-11T03:26:57;5.55;;;4.00;;
15502;SDS011;7853;52.186;5.948;2022-08-11T03:27:57;5.53;;;4.44;;
15502;SDS011;7853;52.186;5.948;2022-08-11T03:28:58;6.77;;;4.07;;
15502;SDS011;7853;52.186;5.948;2022-08-11T03:30:03;5.60;;;4.19;;
15502;SDS011;7853;52.186;5.948;2022-08-11T03:30:56;5.06;;;4.40;;
15502;SDS011;7853;52.186;5.948;2022-08-11T03:31:55;6.40;;;4.36;;
15502;SDS011;7853;52.186;5.948;2022-08-11T03:33:01;6.31;;;4.50;;
15502;SDS011;7853;52.186;5.948;2022-08-11T03:33:57;4.78;;;3.92;;
15502;SDS011;7853;52.186;5.948;2022-08-11T03:34:54;5.81;;;4.17;;
15502;SDS011;7853;52.186;5.948;2022-08-11T03:36:01;5.43;;;4.33;;
15502;SDS011;7853;52.186;5.948;2022-08-11T03:37:14;5.86;;;4.20;;
15502;SDS011;7853;52.186;5.948;2022-08-11T03:37:55;6.30;;;4.33;;
15502;SDS011;7853;52.186;5.948;2022-08-11T03:38:58;5.08;;;4.04;;
15502;SDS011;7853;52.186;5.948;2022-08-11T03:39:56;5.54;;;4.29;;
15502;SDS011;7853;52.186;5.948;2022-08-11T03:41:04;5.24;;;4.30;;
15502;SDS011;7853;52.186;5.948;2022-08-11T03:41:58;5.22;;;4.27;;
15502;SDS011;7853;52.186;5.948;2022-08-11T03:42:56;6.55;;;4.44;;
15502;SDS011;7853;52.186;5.948;2022-08-11T03:43:59;5.52;;;4.28;;
15502;SDS011;7853;52.186;5.948;2022-08-11T03:44:58;4.96;;;3.95;;
15502;SDS011;7853;52.186;5.948;2022-08-11T03:45:59;4.97;;;4.28;;
15502;SDS011;7853;52.186;5.948;2022-08-11T03:46:58;6.33;;;4.06;;
15502;SDS011;7853;52.186;5.948;2022-08-11T03:47:57;6.61;;;4.34;;
15502;SDS011;7853;52.186;5.948;2022-08-11T03:48:56;5.73;;;4.39;;
15502;SDS011;7853;52.186;5.948;2022-08-11T03:50:00;6.06;;;4.24;;
15502;SDS011;7853;52.186;5.948;2022-08-11T03:51:00;5.66;;;4.23;;
15502;SDS011;7853;52.186;5.948;2022-08-11T03:51:57;5.40;;;4.18;;
15502;SDS011;7853;52.186;5.948;2022-08-11T03:53:02;5.97;;;4.09;;
15502;SDS011;7853;52.186;5.948;2022-08-11T03:54:02;5.76;;;4.63;;
15502;SDS011;7853;52.186;5.948;2022-08-11T03:54:59;6.35;;;4.67;;
15502;SDS011;7853;52.186;5.948;2022-08-11T03:58:04;5.34;;;4.47;;
15502;SDS011;7853;52.186;5.948;2022-08-11T03:59:03;6.75;;;4.98;;
15502;SDS011;7853;52.186;5.948;2022-08-11T04:00:03;5.08;;;4.37;;
15502;SDS011;7853;52.186;5.948;2022-08-11T04:01:03;7.02;;;4.88;;
15502;SDS011;7853;52.186;5.948;2022-08-11T04:02:07;5.38;;;4.50;;
15502;SDS011;7853;52.186;5.948;2022-08-11T04:03:04;6.67;;;4.56;;
15502;SDS011;7853;52.186;5.948;2022-08-11T04:03:56;5.56;;;4.80;;
15502;SDS011;7853;52.186;5.948;2022-08-11T04:04:58;6.99;;;4.53;;
15502;SDS011;7853;52.186;5.948;2022-08-11T04:06:06;5.05;;;4.46;;
15502;SDS011;7853;52.186;5.948;2022-08-11T04:07:16;6.45;;;4.60;;
15502;SDS011;7853;52.186;5.948;2022-08-11T04:08:19;7.69;;;4.46;;
15502;SDS011;7853;52.186;5.948;2022-08-11T04:09:05;6.58;;;4.65;;
15502;SDS011;7853;52.186;5.948;2022-08-11T04:10:05;5.41;;;4.45;;
15502;SDS011;7853;52.186;5.948;2022-08-11T04:10:59;6.95;;;4.59;;
15502;SDS011;7853;52.186;5.948;2022-08-11T04:12:03;5.01;;;4.19;;
15502;SDS011;7853;52.186;5.948;2022-08-11T04:13:07;6.25;;;4.76;;
15502;SDS011;7853;52.186;5.948;2022-08-11T04:14:10;6.05;;;4.73;;
15502;SDS011;7853;52.186;5.948;2022-08-11T04:15:13;8.90;;;4.76;;
15502;SDS011;7853;52.186;5.948;2022-08-11T04:15:59;5.64;;;4.69;;
15502;SDS011;7853;52.186;5.948;2022-08-11T04:17:03;6.01;;;4.79;;
15502;SDS011;7853;52.186;5.948;2022-08-11T04:18:02;5.18;;;4.53;;
15502;SDS011;7853;52.186;5.948;2022-08-11T04:19:06;6.11;;;4.65;;
15502;SDS011;7853;52.186;5.948;2022-08-11T04:21:01;6.47;;;4.95;;
15502;SDS011;7853;52.186;5.948;2022-08-11T04:22:07;7.00;;;4.66;;
15502;SDS011;7853;52.186;5.948;2022-08-11T04:23:06;7.84;;;5.18;;
15502;SDS011;7853;52.186;5.948;2022-08-11T04:24:04;7.20;;;4.90;;
15502;SDS011;7853;52.186;5.948;2022-08-11T04:25:01;6.57;;;4.88;;
15502;SDS011;7853;52.186;5.948;2022-08-11T04:26:04;7.94;;;5.29;;
15502;SDS011;7853;52.186;5.948;2022-08-11T04:27:00;7.12;;;5.10;;
15502;SDS011;7853;52.186;5.948;2022-08-11T04:28:05;6.56;;;5.06;;
15502;SDS011;7853;52.186;5.948;2022-08-11T04:28:59;6.07;;;5.20;;
15502;SDS011;7853;52.186;5.948;2022-08-11T04:30:03;6.13;;;4.73;;
15502;SDS011;7853;52.186;5.948;2022-08-11T04:31:03;5.45;;;4.87;;
15502;SDS011;7853;52.186;5.948;2022-08-11T04:32:00;7.25;;;5.02;;
15502;SDS011;7853;52.186;5.948;2022-08-11T04:33:02;6.01;;;5.19;;
15502;SDS011;7853;52.186;5.948;2022-08-11T04:34:03;6.32;;;4.85;;
15502;SDS011;7853;52.186;5.948;2022-08-11T04:35:05;7.52;;;5.16;;
15502;SDS011;7853;52.186;5.948;2022-08-11T04:36:01;6.20;;;4.94;;
15502;SDS011;7853;52.186;5.948;2022-08-11T04:37:05;6.21;;;5.06;;
15502;SDS011;7853;52.186;5.948;2022-08-11T04:38:04;6.00;;;4.71;;
15502;SDS011;7853;52.186;5.948;2022-08-11T04:39:03;7.43;;;4.92;;
15502;SDS011;7853;52.186;5.948;2022-08-11T04:40:02;8.23;;;5.06;;
15502;SDS011;7853;52.186;5.948;2022-08-11T04:42:07;5.72;;;4.76;;
15502;SDS011;7853;52.186;5.948;2022-08-11T04:43:06;7.00;;;5.03;;
15502;SDS011;7853;52.186;5.948;2022-08-11T04:44:19;7.69;;;5.28;;
15502;SDS011;7853;52.186;5.948;2022-08-11T04:46:11;7.15;;;5.43;;
15502;SDS011;7853;52.186;5.948;2022-08-11T04:47:08;6.41;;;5.18;;
15502;SDS011;7853;52.186;5.948;2022-08-11T04:48:04;5.58;;;4.91;;
15502;SDS011;7853;52.186;5.948;2022-08-11T04:49:06;6.25;;;4.87;;
15502;SDS011;7853;52.186;5.948;2022-08-11T04:50:00;5.85;;;4.85;;
15502;SDS011;7853;52.186;5.948;2022-08-11T04:51:03;8.27;;;5.32;;
15502;SDS011;7853;52.186;5.948;2022-08-11T04:52:01;5.92;;;5.25;;
15502;SDS011;7853;52.186;5.948;2022-08-11T04:53:02;6.19;;;4.93;;
15502;SDS011;7853;52.186;5.948;2022-08-11T04:53:59;6.93;;;5.39;;
15502;SDS011;7853;52.186;5.948;2022-08-11T04:55:03;6.50;;;5.47;;
15502;SDS011;7853;52.186;5.948;2022-08-11T04:56:01;6.04;;;5.14;;
15502;SDS011;7853;52.186;5.948;2022-08-11T04:57:01;6.32;;;5.32;;
15502;SDS011;7853;52.186;5.948;2022-08-11T04:58:03;8.18;;;5.38;;
15502;SDS011;7853;52.186;5.948;2022-08-11T04:59:07;8.79;;;5.83;;
15502;SDS011;7853;52.186;5.948;2022-08-11T05:00:02;5.99;;;5.33;;
15502;SDS011;7853;52.186;5.948;2022-08-11T05:01:04;8.12;;;5.55;;
15502;SDS011;7853;52.186;5.948;2022-08-11T05:02:09;6.33;;;5.51;;
15502;SDS011;7853;52.186;5.948;2022-08-11T05:03:09;7.03;;;5.32;;
15502;SDS011;7853;52.186;5.948;2022-08-11T05:04:06;7.35;;;5.79;;
15502;SDS011;7853;52.186;5.948;2022-08-11T05:05:02;9.18;;;5.59;;
15502;SDS011;7853;52.186;5.948;2022-08-11T05:06:04;7.11;;;5.56;;
15502;SDS011;7853;52.186;5.948;2022-08-11T05:07:07;6.96;;;5.34;;
15502;SDS011;7853;52.186;5.948;2022-08-11T05:08:08;6.22;;;5.60;;
15502;SDS011;7853;52.186;5.948;2022-08-11T05:10:03;6.21;;;5.30;;
15502;SDS011;7853;52.186;5.948;2022-08-11T05:11:05;6.92;;;5.48;;
15502;SDS011;7853;52.186;5.948;2022-08-11T05:12:19;6.01;;;5.41;;
15502;SDS011;7853;52.186;5.948;2022-08-11T05:13:00;7.05;;;5.69;;
15502;SDS011;7853;52.186;5.948;2022-08-11T05:14:06;7.26;;;5.76;;
15502;SDS011;7853;52.186;5.948;2022-08-11T05:14:59;6.29;;;5.63;;
15502;SDS011;7853;52.186;5.948;2022-08-11T05:16:01;7.02;;;5.61;;
15502;SDS011;7853;52.186;5.948;2022-08-11T05:17:04;7.39;;;5.65;;
15502;SDS011;7853;52.186;5.948;2022-08-11T05:18:01;6.73;;;5.78;;
15502;SDS011;7853;52.186;5.948;2022-08-11T05:19:00;6.69;;;5.83;;
15502;SDS011;7853;52.186;5.948;2022-08-11T05:20:00;7.75;;;6.02;;
15502;SDS011;7853;52.186;5.948;2022-08-11T05:21:03;7.54;;;5.64;;
15502;SDS011;7853;52.186;5.948;2022-08-11T05:22:00;7.21;;;5.66;;
15502;SDS011;7853;52.186;5.948;2022-08-11T05:23:03;8.73;;;5.90;;
15502;SDS011;7853;52.186;5.948;2022-08-11T05:24:02;7.04;;;5.90;;
15502;SDS011;7853;52.186;5.948;2022-08-11T05:25:02;6.41;;;5.54;;
15502;SDS011;7853;52.186;5.948;2022-08-11T05:26:00;7.77;;;5.91;;
15502;SDS011;7853;52.186;5.948;2022-08-11T05:27:00;7.79;;;5.97;;
15502;SDS011;7853;52.186;5.948;2022-08-11T05:28:02;6.56;;;5.86;;
15502;SDS011;7853;52.186;5.948;2022-08-11T05:29:00;7.19;;;6.19;;
15502;SDS011;7853;52.186;5.948;2022-08-11T05:30:01;8.31;;;5.84;;
15502;SDS011;7853;52.186;5.948;2022-08-11T05:31:02;8.41;;;5.98;;
15502;SDS011;7853;52.186;5.948;2022-08-11T05:32:00;8.00;;;6.11;;
15502;SDS011;7853;52.186;5.948;2022-08-11T05:33:01;8.56;;;5.97;;
15502;SDS011;7853;52.186;5.948;2022-08-11T05:34:02;6.70;;;5.90;;
15502;SDS011;7853;52.186;5.948;2022-08-11T05:35:02;8.33;;;6.53;;
15502;SDS011;7853;52.186;5.948;2022-08-11T05:36:04;8.64;;;6.33;;
15502;SDS011;7853;52.186;5.948;2022-08-11T05:37:02;9.46;;;6.42;;
15502;SDS011;7853;52.186;5.948;2022-08-11T05:38:01;7.29;;;6.59;;
15502;SDS011;7853;52.186;5.948;2022-08-11T05:39:01;7.07;;;6.35;;
15502;SDS011;7853;52.186;5.948;2022-08-11T05:40:05;7.20;;;6.01;;
15502;SDS011;7853;52.186;5.948;2022-08-11T05:41:01;11.11;;;7.81;;
15502;SDS011;7853;52.186;5.948;2022-08-11T05:42:01;10.04;;;7.91;;
15502;SDS011;7853;52.186;5.948;2022-08-11T05:43:02;10.38;;;7.80;;
15502;SDS011;7853;52.186;5.948;2022-08-11T05:44:02;15.13;;;8.73;;
15502;SDS011;7853;52.186;5.948;2022-08-11T05:45:03;12.60;;;7.65;;
15502;SDS011;7853;52.186;5.948;2022-08-11T05:46:02;12.39;;;7.93;;
15502;SDS011;7853;52.186;5.948;2022-08-11T05:47:01;20.08;;;9.12;;
15502;SDS011;7853;52.186;5.948;2022-08-11T05:48:02;15.07;;;8.68;;
15502;SDS011;7853;52.186;5.948;2022-08-11T05:49:02;12.44;;;8.84;;
15502;SDS011;7853;52.186;5.948;2022-08-11T05:50:05;14.78;;;8.61;;
15502;SDS011;7853;52.186;5.948;2022-08-11T05:51:01;18.41;;;9.73;;
15502;SDS011;7853;52.186;5.948;2022-08-11T05:52:02;15.71;;;9.45;;
15502;SDS011;7853;52.186;5.948;2022-08-11T05:53:02;16.69;;;9.15;;
15502;SDS011;7853;52.186;5.948;2022-08-11T05:54:03;18.86;;;9.92;;
15502;SDS011;7853;52.186;5.948;2022-08-11T05:55:02;16.60;;;9.94;;
15502;SDS011;7853;52.186;5.948;2022-08-11T05:56:03;18.57;;;9.37;;
15502;SDS011;7853;52.186;5.948;2022-08-11T05:57:02;13.22;;;8.81;;
15502;SDS011;7853;52.186;5.948;2022-08-11T05:58:02;16.05;;;8.51;;
15502;SDS011;7853;52.186;5.948;2022-08-11T05:59:02;13.78;;;8.76;;
15502;SDS011;7853;52.186;5.948;2022-08-11T06:00:03;13.20;;;8.89;;
15502;SDS011;7853;52.186;5.948;2022-08-11T06:01:03;11.81;;;9.33;;
15502;SDS011;7853;52.186;5.948;2022-08-11T06:02:02;9.94;;;8.67;;
15502;SDS011;7853;52.186;5.948;2022-08-11T06:03:02;10.70;;;8.55;;
15502;SDS011;7853;52.186;5.948;2022-08-11T06:04:04;11.72;;;8.74;;
15502;SDS011;7853;52.186;5.948;2022-08-11T06:05:02;14.00;;;8.77;;
15502;SDS011;7853;52.186;5.948;2022-08-11T06:06:07;13.76;;;8.40;;
15502;SDS011;7853;52.186;5.948;2022-08-11T06:07:03;12.43;;;8.83;;
15502;SDS011;7853;52.186;5.948;2022-08-11T06:08:03;12.07;;;8.97;;
15502;SDS011;7853;52.186;5.948;2022-08-11T06:09:02;9.74;;;8.22;;
15502;SDS011;7853;52.186;5.948;2022-08-11T06:10:04;12.00;;;8.65;;
15502;SDS011;7853;52.186;5.948;2022-08-11T06:11:03;11.54;;;8.70;;
15502;SDS011;7853;52.186;5.948;2022-08-11T06:12:05;9.86;;;8.21;;
15502;SDS011;7853;52.186;5.948;2022-08-11T06:13:04;14.20;;;8.39;;
15502;SDS011;7853;52.186;5.948;2022-08-11T06:14:03;10.20;;;8.32;;
15502;SDS011;7853;52.186;5.948;2022-08-11T06:15:04;12.16;;;8.48;;
15502;SDS011;7853;52.186;5.948;2022-08-11T06:16:03;13.98;;;8.45;;
15502;SDS011;7853;52.186;5.948;2022-08-11T06:17:03;10.50;;;8.36;;
15502;SDS011;7853;52.186;5.948;2022-08-11T06:18:03;12.47;;;8.62;;
15502;SDS011;7853;52.186;5.948;2022-08-11T06:19:03;10.62;;;8.02;;
15502;SDS011;7853;52.186;5.948;2022-08-11T06:20:04;12.47;;;8.63;;
15502;SDS011;7853;52.186;5.948;2022-08-11T06:21:07;10.27;;;7.84;;
15502;SDS011;7853;52.186;5.948;2022-08-11T06:22:04;9.01;;;7.78;;